createdAt,value
2019-05-07T00:06:52.802Z,30.57
2019-05-07T00:16:58.854Z,23.73
2019-05-07T00:27:03.656Z,27.83
2019-05-07T00:37:13.151Z,25.20
2019-05-07T00:47:18.208Z,34.37
2019-05-07T00:57:23.363Z,24.90
2019-05-07T01:07:28.184Z,20.60
2019-05-07T01:17:33.608Z,20.90
2019-05-07T01:27:38.737Z,24.67
2019-05-07T01:37:43.466Z,20.83
2019-05-07T01:47:48.242Z,24.13
2019-05-07T01:57:53.061Z,20.67
2019-05-07T02:07:59.414Z,28.90
2019-05-07T02:18:04.275Z,27.87
2019-05-07T02:28:09.094Z,18.80
2019-05-07T02:38:18.172Z,29.80
2019-05-07T02:48:24.763Z,26.73
2019-05-07T02:58:32.864Z,32.83
2019-05-07T03:08:35.959Z,35.60
2019-05-07T03:18:43.502Z,28.27
2019-05-07T03:28:53.588Z,27.93
2019-05-07T03:38:57.899Z,26.57
2019-05-07T03:49:26.283Z,26.83
2019-05-07T03:59:33.993Z,28.33
2019-05-07T04:09:37.716Z,28.33
2019-05-07T04:19:44.112Z,26.97
2019-05-07T04:29:48.966Z,28.37
2019-05-07T04:39:54.152Z,31.63
2019-05-07T04:49:59.115Z,36.20
2019-05-07T05:00:05.119Z,25.80
2019-05-07T05:10:09.895Z,26.23
2019-05-07T05:20:15.622Z,25.03
2019-05-07T05:30:38.386Z,31.63
2019-05-07T05:40:43.216Z,31.70
2019-05-07T05:50:49.601Z,21.83
2019-05-07T06:01:13.057Z,28.60
2019-05-07T06:11:22.750Z,28.23
2019-05-07T06:21:29.148Z,28.33
2019-05-07T06:31:34.060Z,29.20
2019-05-07T06:41:57.257Z,27.33
2019-05-07T06:52:03.037Z,28.50
2019-05-07T07:02:24.524Z,28.07
2019-05-07T07:12:32.834Z,22.97
2019-05-07T07:22:37.341Z,23.70
2019-05-07T07:32:43.714Z,21.60
2019-05-07T07:42:48.511Z,17.40
2019-05-07T07:52:53.282Z,15.67
2019-05-07T08:02:59.703Z,17.10
2019-05-07T08:13:04.465Z,16.63
2019-05-07T08:23:09.276Z,21.00
2019-05-07T08:33:15.598Z,14.33
2019-05-07T08:43:21.880Z,20.73
2019-05-07T08:53:26.875Z,19.80
2019-05-07T09:03:43.478Z,13.93
2019-05-07T09:13:48.478Z,28.03
2019-05-07T09:23:53.261Z,18.37
2019-05-07T09:33:59.243Z,23.27
2019-05-07T09:44:04.220Z,36.13
2019-05-07T09:54:09.039Z,20.03
2019-05-07T10:04:13.912Z,20.30
2019-05-07T10:14:18.712Z,17.63
2019-05-07T10:24:23.487Z,16.40
2019-05-07T10:34:28.396Z,21.80
2019-05-07T10:44:37.545Z,24.10
2019-05-07T10:54:42.397Z,17.77
2019-05-07T11:04:47.175Z,24.73
2019-05-07T11:14:51.975Z,17.77
2019-05-07T11:24:56.736Z,19.40
2019-05-07T11:35:03.091Z,14.13
2019-05-07T11:45:09.435Z,12.33
2019-05-07T11:55:14.343Z,12.53
2019-05-07T12:05:19.136Z,18.77
2019-05-07T12:15:23.974Z,22.13
2019-05-07T12:25:28.781Z,17.43
2019-05-07T12:35:34.161Z,21.70
2019-05-07T12:45:39.077Z,10.27
2019-05-07T12:55:54.518Z,17.67
2019-05-07T13:05:59.336Z,14.00
2019-05-07T13:16:06.119Z,16.33
2019-05-07T13:26:10.887Z,12.30
2019-05-07T13:36:17.475Z,13.23
2019-05-07T13:46:22.303Z,12.90
2019-05-07T13:56:27.209Z,12.07
2019-05-07T14:06:38.242Z,12.97
2019-05-07T14:16:45.087Z,12.00
2019-05-07T14:26:49.993Z,9.37
2019-05-07T14:37:13.414Z,15.93
2019-05-07T14:47:22.058Z,23.67
2019-05-07T14:57:33.896Z,10.90
2019-05-07T15:07:51.153Z,14.93
2019-05-07T15:18:02.156Z,8.80
2019-05-07T15:28:12.538Z,9.47
2019-05-07T15:38:19.190Z,22.50
2019-05-07T15:48:23.980Z,32.27
2019-05-07T15:58:28.923Z,32.43
2019-05-07T16:08:49.707Z,10.93
2019-05-07T16:18:55.817Z,13.53
2019-05-07T16:29:04.312Z,22.13
2019-05-07T16:39:07.156Z,9.60
2019-05-07T16:49:13.585Z,12.80
2019-05-07T16:59:18.505Z,22.63
2019-05-07T17:09:23.377Z,14.93
2019-05-07T17:19:28.148Z,38.30
2019-05-07T17:29:32.986Z,49.37
2019-05-07T17:39:37.827Z,80.13
2019-05-07T17:49:42.697Z,118.60
2019-05-07T17:59:47.627Z,98.83
2019-05-07T18:09:52.446Z,80.20
2019-05-07T18:19:58.391Z,120.07
2019-05-07T18:30:03.426Z,152.43
2019-05-07T18:40:08.496Z,151.37
2019-05-07T18:50:15.366Z,265.93
2019-05-07T19:00:34.055Z,304.93
2019-05-07T19:10:39.064Z,226.47
2019-05-07T19:20:45.222Z,213.23
2019-05-07T19:30:52.825Z,116.80
2019-05-07T19:40:57.903Z,147.13
2019-05-07T19:51:03.051Z,135.37
2019-05-07T20:01:09.237Z,161.70
2019-05-07T20:11:32.524Z,149.27
2019-05-07T20:21:39.155Z,150.07
2019-05-07T20:31:44.284Z,156.37
2019-05-07T20:41:49.353Z,167.07
2019-05-07T20:51:54.178Z,168.97
2019-05-07T21:01:59.077Z,163.27
2019-05-07T21:12:03.875Z,253.63
2019-05-07T21:22:08.702Z,413.03
2019-05-07T21:32:13.775Z,362.67
2019-05-07T21:42:18.606Z,303.83
2019-05-07T21:52:24.988Z,281.43
2019-05-07T22:02:29.914Z,267.70
2019-05-07T22:12:34.732Z,235.37
2019-05-07T22:22:39.591Z,241.07
2019-05-07T22:32:54.956Z,215.37
2019-05-07T22:43:02.072Z,252.47
2019-05-07T22:53:06.381Z,231.20
2019-05-07T23:03:12.355Z,203.83
2019-05-07T23:13:17.416Z,187.17
2019-05-07T23:23:22.290Z,180.93
2019-05-07T23:33:27.097Z,117.60
2019-05-07T23:43:32.178Z,158.33
2019-05-07T23:53:36.997Z,147.37
